Aérodrome :
LOGIN :

S'inscrire | Disclaimer

   EN    FR    IT 

 










Légende :    VFR   VFR Marginal   IFR   IFR Intensif   IFR Très Intensif
Visi : 
Plafond : 
>= 8 km
>= 3000ft
5 à 8 km
1000 à 3000 ft
1500m à 5 km
500 à 1000 ft
800 à 1500m
200 à 500 ft
< 800m
< 200 ft
Symboles :   Orages  Brouillard  Fortes neiges  Fortes précipitations  Vent > 20 kt
SIGMETs :   Divers  Orages  Givrage  Turbulence  Onde Orograph.  Cendres Volcan.







- Altitude de l'aérodrome : 218 ft
- Code IATA : LBG
- Voir les cartes d'approche


LFPB - Paris / Le Bourget

DERNIER METAR :
  • 211000Z AUTO 26005KT 220V310 9999 BKN021 OVC026 20/14 Q1023 TEMPO 4000 -RADZ BKN014

METARs EXPIRÉS :
  • 210930Z AUTO 23008KT 9999 OVC024 20/14 Q1023 TEMPO 4000 -RADZ BKN014
  • 210900Z AUTO 21008KT 9999 BKN027 OVC035 20/13 Q1023 TEMPO 4000 -RADZ BKN014
  • 210830Z AUTO 22006KT 190V260 9999 OVC028 20/13 Q1023 TEMPO 4000 -RADZ BKN014
  • 210800Z AUTO 21004KT 170V240 9999 BKN030 OVC039 19/13 Q1023 TEMPO 4000 -RADZ BKN014
  • 210730Z AUTO 22006KT 9999 BKN032 OVC038 19/11 Q1023 TEMPO 4000 -RADZ BKN014

TAF TAF LFPB
Valide du 21 à 06h jusqu'au 22 à 06h UTC


210500Z 2106/2206 18005KT 9999 BKN040
PROB30
TEMPO 2106/2113 4000 -RADZ BKN014
BECMG 2118/2120 04005KT
PROB30
TEMPO 2203/2206 0800 BCFG BKN004
ATIS : +33 1 48 62 43 92
Pas de NOTAMs connus pour ce terrain.



MET'MAP, la Météo Aéronautique d'un coup d'oeil ! - Copyright ORBIFLY Décembre 2007 - Disclaimer

ORBIFLY MET'MAP TEAM :

Programmation & Développement : Alexandra Zaïnal
Conception & Développement : Baudouin d'Aumeries
Co-Programmation & Développement : Marc-Olivier Méhu
Soutien technique & logistique : Manuel Goepfert

Contact : metmap@orbifly.com




SOURCES & CREDITS :

   NOAA